sensor_id;sensor_type;location;lat;lon;timestamp;temperature;humidity
21815;DHT22;11069;48.988;8.450;2024-03-23T00:52:16;10.80;99.90
21815;DHT22;11069;48.988;8.450;2024-03-23T00:54:41;10.70;99.90
21815;DHT22;11069;48.988;8.450;2024-03-23T00:57:07;10.50;99.90
21815;DHT22;11069;48.988;8.450;2024-03-23T00:59:33;10.50;99.90
21815;DHT22;11069;48.988;8.450;2024-03-23T01:01:58;10.40;99.90
21815;DHT22;11069;48.988;8.450;2024-03-23T01:04:24;10.40;99.90
21815;DHT22;11069;48.988;8.450;2024-03-23T01:06:49;10.40;99.90
21815;DHT22;11069;48.988;8.450;2024-03-23T01:09:15;10.40;99.90
21815;DHT22;11069;48.988;8.450;2024-03-23T01:11:41;10.30;99.90
21815;DHT22;11069;48.988;8.450;2024-03-23T01:14:06;10.30;99.90
21815;DHT22;11069;48.988;8.450;2024-03-23T01:16:32;10.30;99.90
21815;DHT22;11069;48.988;8.450;2024-03-23T01:18:58;10.30;99.90
21815;DHT22;11069;48.988;8.450;2024-03-23T01:21:24;10.30;99.90
21815;DHT22;11069;48.988;8.450;2024-03-23T01:23:49;10.30;99.90
21815;DHT22;11069;48.988;8.450;2024-03-23T01:26:15;10.30;99.90
21815;DHT22;11069;48.988;8.450;2024-03-23T01:28:40;10.20;99.90
21815;DHT22;11069;48.988;8.450;2024-03-23T01:31:06;10.10;99.90
21815;DHT22;11069;48.988;8.450;2024-03-23T01:33:31;10.00;99.90
21815;DHT22;11069;48.988;8.450;2024-03-23T01:35:57;10.00;99.90
21815;DHT22;11069;48.988;8.450;2024-03-23T01:38:23;9.90;99.90
21815;DHT22;11069;48.988;8.450;2024-03-23T01:40:48;10.00;99.90
21815;DHT22;11069;48.988;8.450;2024-03-23T01:43:15;10.00;99.90
21815;DHT22;11069;48.988;8.450;2024-03-23T01:45:41;10.00;99.90
21815;DHT22;11069;48.988;8.450;2024-03-23T01:48:07;10.00;99.90
21815;DHT22;11069;48.988;8.450;2024-03-23T01:50:33;10.10;99.90
21815;DHT22;11069;48.988;8.450;2024-03-23T01:53:01;10.30;99.90
21815;DHT22;11069;48.988;8.450;2024-03-23T01:55:27;10.40;99.90
21815;DHT22;11069;48.988;8.450;2024-03-23T01:57:56;10.60;99.90
21815;DHT22;11069;48.988;8.450;2024-03-23T02:00:21;10.90;99.90
21815;DHT22;11069;48.988;8.450;2024-03-23T02:02:48;10.90;99.90
21815;DHT22;11069;48.988;8.450;2024-03-23T02:05:14;11.00;99.90
21815;DHT22;11069;48.988;8.450;2024-03-23T02:07:40;11.10;99.90
21815;DHT22;11069;48.988;8.450;2024-03-23T02:10:07;11.40;99.90
21815;DHT22;11069;48.988;8.450;2024-03-23T02:12:33;11.60;99.90
21815;DHT22;11069;48.988;8.450;2024-03-23T02:14:59;11.70;99.90
21815;DHT22;11069;48.988;8.450;2024-03-23T02:17:24;11.80;99.90
21815;DHT22;11069;48.988;8.450;2024-03-23T02:19:50;11.90;99.90
21815;DHT22;11069;48.988;8.450;2024-03-23T02:22:16;12.00;99.90
21815;DHT22;11069;48.988;8.450;2024-03-23T02:24:42;12.10;99.90
21815;DHT22;11069;48.988;8.450;2024-03-23T02:27:08;12.10;99.90
21815;DHT22;11069;48.988;8.450;2024-03-23T02:29:33;12.20;99.90
21815;DHT22;11069;48.988;8.450;2024-03-23T02:31:59;12.20;99.90
21815;DHT22;11069;48.988;8.450;2024-03-23T02:34:24;12.20;99.90
21815;DHT22;11069;48.988;8.450;2024-03-23T02:36:50;12.20;99.90
21815;DHT22;11069;48.988;8.450;2024-03-23T02:39:16;12.30;99.90
21815;DHT22;11069;48.988;8.450;2024-03-23T02:41:41;12.30;99.90
21815;DHT22;11069;48.988;8.450;2024-03-23T02:44:07;12.30;99.90
21815;DHT22;11069;48.988;8.450;2024-03-23T02:46:33;12.30;99.90
21815;DHT22;11069;48.988;8.450;2024-03-23T02:48:59;12.40;99.90
21815;DHT22;11069;48.988;8.450;2024-03-23T02:51:24;12.40;99.90
21815;DHT22;11069;48.988;8.450;2024-03-23T02:53:50;12.50;99.90
21815;DHT22;11069;48.988;8.450;2024-03-23T02:56:15;12.50;99.90
21815;DHT22;11069;48.988;8.450;2024-03-23T02:58:43;12.40;99.90
21815;DHT22;11069;48.988;8.450;2024-03-23T03:01:08;12.40;99.90
21815;DHT22;11069;48.988;8.450;2024-03-23T03:03:34;12.40;99.90
21815;DHT22;11069;48.988;8.450;2024-03-23T03:05:59;12.40;99.90
21815;DHT22;11069;48.988;8.450;2024-03-23T03:08:25;12.30;99.90
21815;DHT22;11069;48.988;8.450;2024-03-23T03:10:51;12.30;99.90
21815;DHT22;11069;48.988;8.450;2024-03-23T03:13:16;12.30;99.90
21815;DHT22;11069;48.988;8.450;2024-03-23T03:15:43;12.10;99.90
21815;DHT22;11069;48.988;8.450;2024-03-23T03:18:09;12.10;99.90
21815;DHT22;11069;48.988;8.450;2024-03-23T03:20:40;11.90;99.90
21815;DHT22;11069;48.988;8.450;2024-03-23T03:23:06;11.90;99.90
21815;DHT22;11069;48.988;8.450;2024-03-23T03:25:32;12.00;99.90
21815;DHT22;11069;48.988;8.450;2024-03-23T03:27:57;12.10;99.90
21815;DHT22;11069;48.988;8.450;2024-03-23T03:30:23;12.20;99.90
21815;DHT22;11069;48.988;8.450;2024-03-23T03:32:49;12.20;99.90
21815;DHT22;11069;48.988;8.450;2024-03-23T03:35:15;12.20;99.90
21815;DHT22;11069;48.988;8.450;2024-03-23T03:37:41;12.30;99.90
21815;DHT22;11069;48.988;8.450;2024-03-23T03:40:07;12.30;99.90
21815;DHT22;11069;48.988;8.450;2024-03-23T03:42:34;12.40;99.90
21815;DHT22;11069;48.988;8.450;2024-03-23T03:45:00;12.50;99.90
21815;DHT22;11069;48.988;8.450;2024-03-23T03:47:25;12.50;99.90
21815;DHT22;11069;48.988;8.450;2024-03-23T03:49:51;12.50;99.90
21815;DHT22;11069;48.988;8.450;2024-03-23T03:52:16;12.60;99.90
21815;DHT22;11069;48.988;8.450;2024-03-23T03:54:42;12.60;99.90
21815;DHT22;11069;48.988;8.450;2024-03-23T03:57:07;12.60;99.90
21815;DHT22;11069;48.988;8.450;2024-03-23T03:59:33;12.60;99.90
21815;DHT22;11069;48.988;8.450;2024-03-23T04:01:58;12.70;99.90
21815;DHT22;11069;48.988;8.450;2024-03-23T04:04:24;12.70;99.90
21815;DHT22;11069;48.988;8.450;2024-03-23T04:06:49;12.70;99.90
21815;DHT22;11069;48.988;8.450;2024-03-23T04:09:15;12.70;99.90
21815;DHT22;11069;48.988;8.450;2024-03-23T04:11:40;12.60;99.90
21815;DHT22;11069;48.988;8.450;2024-03-23T04:14:06;12.60;99.90
21815;DHT22;11069;48.988;8.450;2024-03-23T04:16:34;12.50;99.90
21815;DHT22;11069;48.988;8.450;2024-03-23T04:19:00;12.60;99.90
21815;DHT22;11069;48.988;8.450;2024-03-23T04:21:31;12.60;99.90
21815;DHT22;11069;48.988;8.450;2024-03-23T04:23:56;12.50;99.90
21815;DHT22;11069;48.988;8.450;2024-03-23T04:26:22;12.50;99.90
21815;DHT22;11069;48.988;8.450;2024-03-23T04:28:47;12.50;99.90
21815;DHT22;11069;48.988;8.450;2024-03-23T04:31:13;12.50;99.90
21815;DHT22;11069;48.988;8.450;2024-03-23T04:33:39;12.40;99.90
21815;DHT22;11069;48.988;8.450;2024-03-23T04:36:04;12.30;99.90
21815;DHT22;11069;48.988;8.450;2024-03-23T04:38:30;12.30;99.90
21815;DHT22;11069;48.988;8.450;2024-03-23T04:40:59;12.20;99.90
21815;DHT22;11069;48.988;8.450;2024-03-23T04:43:28;12.10;99.90
21815;DHT22;11069;48.988;8.450;2024-03-23T04:45:54;12.10;99.90
21815;DHT22;11069;48.988;8.450;2024-03-23T04:48:21;12.10;99.90
21815;DHT22;11069;48.988;8.450;2024-03-23T04:50:48;12.00;99.90
21815;DHT22;11069;48.988;8.450;2024-03-23T04:53:14;12.00;99.90
21815;DHT22;11069;48.988;8.450;2024-03-23T04:55:41;11.80;99.90
21815;DHT22;11069;48.988;8.450;2024-03-23T04:58:07;11.50;99.90
21815;DHT22;11069;48.988;8.450;2024-03-23T05:00:32;11.30;99.90
21815;DHT22;11069;48.988;8.450;2024-03-23T05:02:58;11.10;99.90
21815;DHT22;11069;48.988;8.450;2024-03-23T05:05:23;11.00;99.90
21815;DHT22;11069;48.988;8.450;2024-03-23T05:07:49;10.80;99.90
21815;DHT22;11069;48.988;8.450;2024-03-23T05:10:14;10.80;99.90
21815;DHT22;11069;48.988;8.450;2024-03-23T05:12:40;10.70;99.90
21815;DHT22;11069;48.988;8.450;2024-03-23T05:15:06;10.70;99.90
21815;DHT22;11069;48.988;8.450;2024-03-23T05:17:33;10.70;99.90
21815;DHT22;11069;48.988;8.450;2024-03-23T05:19:59;10.70;99.90
21815;DHT22;11069;48.988;8.450;2024-03-23T05:22:25;10.70;99.90
21815;DHT22;11069;48.988;8.450;2024-03-23T05:24:50;10.70;99.90
21815;DHT22;11069;48.988;8.450;2024-03-23T05:27:16;10.70;99.90
21815;DHT22;11069;48.988;8.450;2024-03-23T05:29:41;10.80;99.90
21815;DHT22;11069;48.988;8.450;2024-03-23T05:32:07;10.70;99.90
21815;DHT22;11069;48.988;8.450;2024-03-23T05:34:33;10.70;99.90
21815;DHT22;11069;48.988;8.450;2024-03-23T05:36:59;10.70;99.90
21815;DHT22;11069;48.988;8.450;2024-03-23T05:39:24;10.70;99.90
21815;DHT22;11069;48.988;8.450;2024-03-23T05:41:50;10.70;99.90
21815;DHT22;11069;48.988;8.450;2024-03-23T05:44:16;10.70;99.90
21815;DHT22;11069;48.988;8.450;2024-03-23T05:46:42;10.60;99.90
21815;DHT22;11069;48.988;8.450;2024-03-23T05:49:07;10.60;99.90
21815;DHT22;11069;48.988;8.450;2024-03-23T05:51:33;10.60;99.90
21815;DHT22;11069;48.988;8.450;2024-03-23T05:53:59;10.50;99.90
21815;DHT22;11069;48.988;8.450;2024-03-23T05:56:24;10.50;99.90
21815;DHT22;11069;48.988;8.450;2024-03-23T05:58:51;10.40;99.90
21815;DHT22;11069;48.988;8.450;2024-03-23T06:01:17;10.40;99.90
21815;DHT22;11069;48.988;8.450;2024-03-23T06:03:43;10.40;99.90
21815;DHT22;11069;48.988;8.450;2024-03-23T06:06:09;10.40;99.90
21815;DHT22;11069;48.988;8.450;2024-03-23T06:08:37;10.40;99.90
21815;DHT22;11069;48.988;8.450;2024-03-23T06:11:04;10.40;99.90
21815;DHT22;11069;48.988;8.450;2024-03-23T06:13:29;10.30;99.90
21815;DHT22;11069;48.988;8.450;2024-03-23T06:15:56;10.30;99.90
21815;DHT22;11069;48.988;8.450;2024-03-23T06:18:21;10.30;99.90
21815;DHT22;11069;48.988;8.450;2024-03-23T06:20:47;10.20;99.90
21815;DHT22;11069;48.988;8.450;2024-03-23T06:23:13;10.30;99.90
21815;DHT22;11069;48.988;8.450;2024-03-23T06:25:40;10.20;99.90
21815;DHT22;11069;48.988;8.450;2024-03-23T06:28:05;10.20;99.90
21815;DHT22;11069;48.988;8.450;2024-03-23T06:30:31;10.10;99.90
21815;DHT22;11069;48.988;8.450;2024-03-23T06:32:57;10.20;99.90
21815;DHT22;11069;48.988;8.450;2024-03-23T06:35:23;10.10;99.90
21815;DHT22;11069;48.988;8.450;2024-03-23T06:37:48;10.10;99.90
21815;DHT22;11069;48.988;8.450;2024-03-23T06:40:14;10.10;99.90
21815;DHT22;11069;48.988;8.450;2024-03-23T06:42:40;10.00;99.90
21815;DHT22;11069;48.988;8.450;2024-03-23T06:45:06;10.10;99.90
21815;DHT22;11069;48.988;8.450;2024-03-23T06:47:32;10.00;99.90
21815;DHT22;11069;48.988;8.450;2024-03-23T06:49:59;10.10;99.90
21815;DHT22;11069;48.988;8.450;2024-03-23T06:52:27;10.00;99.90
21815;DHT22;11069;48.988;8.450;2024-03-23T06:54:53;10.00;99.90
21815;DHT22;11069;48.988;8.450;2024-03-23T06:57:19;9.90;99.90
21815;DHT22;11069;48.988;8.450;2024-03-23T06:59:44;9.90;99.90
21815;DHT22;11069;48.988;8.450;2024-03-23T07:02:10;9.90;99.90
21815;DHT22;11069;48.988;8.450;2024-03-23T07:04:36;9.90;99.90
21815;DHT22;11069;48.988;8.450;2024-03-23T07:07:02;9.80;99.90
21815;DHT22;11069;48.988;8.450;2024-03-23T07:09:28;9.80;99.90
21815;DHT22;11069;48.988;8.450;2024-03-23T07:11:56;9.70;99.90
21815;DHT22;11069;48.988;8.450;2024-03-23T07:14:22;9.70;99.90
21815;DHT22;11069;48.988;8.450;2024-03-23T07:16:48;9.70;99.90
21815;DHT22;11069;48.988;8.450;2024-03-23T07:19:15;9.60;99.90
21815;DHT22;11069;48.988;8.450;2024-03-23T07:21:45;9.60;99.90
21815;DHT22;11069;48.988;8.450;2024-03-23T07:24:11;9.60;99.90
21815;DHT22;11069;48.988;8.450;2024-03-23T07:26:37;9.60;99.90
21815;DHT22;11069;48.988;8.450;2024-03-23T07:29:06;9.60;99.90
21815;DHT22;11069;48.988;8.450;2024-03-23T07:31:32;9.50;99.90
21815;DHT22;11069;48.988;8.450;2024-03-23T07:33:57;9.50;99.90
21815;DHT22;11069;48.988;8.450;2024-03-23T07:36:23;9.50;99.90
21815;DHT22;11069;48.988;8.450;2024-03-23T07:38:48;9.60;99.90
21815;DHT22;11069;48.988;8.450;2024-03-23T07:41:18;9.70;99.90
21815;DHT22;11069;48.988;8.450;2024-03-23T07:43:47;9.70;99.90
21815;DHT22;11069;48.988;8.450;2024-03-23T07:46:14;9.70;99.90
21815;DHT22;11069;48.988;8.450;2024-03-23T07:48:40;9.80;99.90
21815;DHT22;11069;48.988;8.450;2024-03-23T07:51:18;10.00;99.90
21815;DHT22;11069;48.988;8.450;2024-03-23T07:53:44;9.90;99.90
21815;DHT22;11069;48.988;8.450;2024-03-23T07:56:14;10.00;99.90
21815;DHT22;11069;48.988;8.450;2024-03-23T07:58:40;10.10;99.90
21815;DHT22;11069;48.988;8.450;2024-03-23T08:01:08;10.00;99.90
21815;DHT22;11069;48.988;8.450;2024-03-23T08:03:34;9.90;99.90
21815;DHT22;11069;48.988;8.450;2024-03-23T08:06:07;9.80;99.90
21815;DHT22;11069;48.988;8.450;2024-03-23T08:08:34;9.70;99.90
21815;DHT22;11069;48.988;8.450;2024-03-23T08:11:05;9.80;99.90
21815;DHT22;11069;48.988;8.450;2024-03-23T08:13:32;9.90;99.90
21815;DHT22;11069;48.988;8.450;2024-03-23T08:15:58;10.00;99.90
21815;DHT22;11069;48.988;8.450;2024-03-23T08:18:24;10.00;99.90
21815;DHT22;11069;48.988;8.450;2024-03-23T08:21:04;9.80;99.90
21815;DHT22;11069;48.988;8.450;2024-03-23T08:23:31;9.70;99.90
21815;DHT22;11069;48.988;8.450;2024-03-23T08:26:02;9.70;99.90
21815;DHT22;11069;48.988;8.450;2024-03-23T08:28:29;9.80;99.90
21815;DHT22;11069;48.988;8.450;2024-03-23T08:30:55;10.70;99.90
21815;DHT22;11069;48.988;8.450;2024-03-23T08:33:21;11.60;99.90
21815;DHT22;11069;48.988;8.450;2024-03-23T08:35:58;12.50;99.90
21815;DHT22;11069;48.988;8.450;2024-03-23T08:38:25;13.40;99.90
21815;DHT22;11069;48.988;8.450;2024-03-23T08:41:03;14.00;99.90
21815;DHT22;11069;48.988;8.450;2024-03-23T08:43:30;12.80;99.90
21815;DHT22;11069;48.988;8.450;2024-03-23T08:46:07;12.30;99.90
21815;DHT22;11069;48.988;8.450;2024-03-23T08:48:35;12.50;99.90
21815;DHT22;11069;48.988;8.450;2024-03-23T08:51:05;12.30;99.90
21815;DHT22;11069;48.988;8.450;2024-03-23T08:53:31;12.00;99.90
21815;DHT22;11069;48.988;8.450;2024-03-23T08:55:57;12.30;99.90
21815;DHT22;11069;48.988;8.450;2024-03-23T08:58:26;12.80;99.90
21815;DHT22;11069;48.988;8.450;2024-03-23T09:00:54;13.30;98.50
21815;DHT22;11069;48.988;8.450;2024-03-23T09:03:23;12.50;98.00
21815;DHT22;11069;48.988;8.450;2024-03-23T09:05:50;12.30;99.90
21815;DHT22;11069;48.988;8.450;2024-03-23T09:08:16;12.50;99.90
21815;DHT22;11069;48.988;8.450;2024-03-23T09:10:42;12.10;99.90
21815;DHT22;11069;48.988;8.450;2024-03-23T09:13:08;12.10;99.90
21815;DHT22;11069;48.988;8.450;2024-03-23T09:15:36;11.80;99.90
21815;DHT22;11069;48.988;8.450;2024-03-23T09:18:03;11.70;99.00
21815;DHT22;11069;48.988;8.450;2024-03-23T09:20:29;11.40;99.50
21815;DHT22;11069;48.988;8.450;2024-03-23T09:22:54;11.40;99.20
21815;DHT22;11069;48.988;8.450;2024-03-23T09:25:20;11.20;98.70
21815;DHT22;11069;48.988;8.450;2024-03-23T09:27:47;11.00;98.80
21815;DHT22;11069;48.988;8.450;2024-03-23T09:30:13;10.70;99.50
21815;DHT22;11069;48.988;8.450;2024-03-23T09:32:41;10.60;98.90
21815;DHT22;11069;48.988;8.450;2024-03-23T09:35:07;10.40;99.60
21815;DHT22;11069;48.988;8.450;2024-03-23T09:37:32;10.30;99.80
21815;DHT22;11069;48.988;8.450;2024-03-23T09:39:58;10.30;99.70
21815;DHT22;11069;48.988;8.450;2024-03-23T09:42:23;10.20;99.80
21815;DHT22;11069;48.988;8.450;2024-03-23T09:44:51;10.10;99.70
21815;DHT22;11069;48.988;8.450;2024-03-23T09:47:17;10.10;99.90
21815;DHT22;11069;48.988;8.450;2024-03-23T09:49:43;10.00;99.40
21815;DHT22;11069;48.988;8.450;2024-03-23T09:52:08;9.80;99.90
21815;DHT22;11069;48.988;8.450;2024-03-23T09:54:35;9.60;99.90
21815;DHT22;11069;48.988;8.450;2024-03-23T09:57:00;9.50;99.90
21815;DHT22;11069;48.988;8.450;2024-03-23T09:59:26;9.30;99.90
21815;DHT22;11069;48.988;8.450;2024-03-23T10:01:53;9.00;99.90
21815;DHT22;11069;48.988;8.450;2024-03-23T10:04:40;8.50;99.90
21815;DHT22;11069;48.988;8.450;2024-03-23T10:07:14;7.90;99.90
21815;DHT22;11069;48.988;8.450;2024-03-23T10:09:40;7.50;99.90
21815;DHT22;11069;48.988;8.450;2024-03-23T10:12:13;7.50;99.90
21815;DHT22;11069;48.988;8.450;2024-03-23T10:14:39;7.50;99.90
21815;DHT22;11069;48.988;8.450;2024-03-23T10:17:19;7.50;99.90
21815;DHT22;11069;48.988;8.450;2024-03-23T10:22:23;7.60;99.90
21815;DHT22;11069;48.988;8.450;2024-03-23T10:25:10;7.70;99.90
21815;DHT22;11069;48.988;8.450;2024-03-23T10:27:36;7.70;99.90
21815;DHT22;11069;48.988;8.450;2024-03-23T10:30:12;7.80;99.90
21815;DHT22;11069;48.988;8.450;2024-03-23T10:32:38;7.80;99.90
21815;DHT22;11069;48.988;8.450;2024-03-23T10:35:20;7.70;99.90
21815;DHT22;11069;48.988;8.450;2024-03-23T10:37:47;7.70;99.90
21815;DHT22;11069;48.988;8.450;2024-03-23T10:40:15;7.90;99.90
21815;DHT22;11069;48.988;8.450;2024-03-23T10:42:41;8.00;99.90
21815;DHT22;11069;48.988;8.450;2024-03-23T10:45:07;8.20;99.90
21815;DHT22;11069;48.988;8.450;2024-03-23T10:47:37;8.40;99.90
21815;DHT22;11069;48.988;8.450;2024-03-23T10:50:06;8.70;99.90
21815;DHT22;11069;48.988;8.450;2024-03-23T10:52:35;9.40;99.90
21815;DHT22;11069;48.988;8.450;2024-03-23T10:55:03;10.50;99.90
21815;DHT22;11069;48.988;8.450;2024-03-23T10:57:53;10.60;99.90
21815;DHT22;11069;48.988;8.450;2024-03-23T11:00:19;11.20;99.90
21815;DHT22;11069;48.988;8.450;2024-03-23T11:02:48;11.80;99.90
21815;DHT22;11069;48.988;8.450;2024-03-23T11:07:53;12.70;99.90
21815;DHT22;11069;48.988;8.450;2024-03-23T11:10:29;12.40;99.90
21815;DHT22;11069;48.988;8.450;2024-03-23T11:12:56;11.80;99.90
21815;DHT22;11069;48.988;8.450;2024-03-23T11:15:22;12.00;99.90
21815;DHT22;11069;48.988;8.450;2024-03-23T11:18:07;12.80;99.90
21815;DHT22;11069;48.988;8.450;2024-03-23T11:20:35;12.30;99.90
21815;DHT22;11069;48.988;8.450;2024-03-23T11:23:01;12.80;99.90
21815;DHT22;11069;48.988;8.450;2024-03-23T11:25:27;12.20;99.90
21815;DHT22;11069;48.988;8.450;2024-03-23T11:27:57;13.10;99.90
21815;DHT22;11069;48.988;8.450;2024-03-23T11:30:24;13.60;99.90
21815;DHT22;11069;48.988;8.450;2024-03-23T11:32:52;14.50;99.90
21815;DHT22;11069;48.988;8.450;2024-03-23T11:35:33;14.10;99.90
21815;DHT22;11069;48.988;8.450;2024-03-23T11:38:05;15.20;99.90
21815;DHT22;11069;48.988;8.450;2024-03-23T11:40:44;14.10;99.90
21815;DHT22;11069;48.988;8.450;2024-03-23T11:43:16;13.80;99.90
21815;DHT22;11069;48.988;8.450;2024-03-23T11:45:43;13.80;99.90
21815;DHT22;11069;48.988;8.450;2024-03-23T11:48:16;14.40;99.90
21815;DHT22;11069;48.988;8.450;2024-03-23T11:50:46;15.30;99.80
21815;DHT22;11069;48.988;8.450;2024-03-23T11:53:16;13.80;99.90
21815;DHT22;11069;48.988;8.450;2024-03-23T11:55:49;12.50;99.90
21815;DHT22;11069;48.988;8.450;2024-03-23T11:58:16;11.00;99.90
21815;DHT22;11069;48.988;8.450;2024-03-23T12:00:42;10.30;99.90
21815;DHT22;11069;48.988;8.450;2024-03-23T12:03:07;9.70;99.90
21815;DHT22;11069;48.988;8.450;2024-03-23T12:05:34;9.50;99.90
21815;DHT22;11069;48.988;8.450;2024-03-23T12:08:18;9.40;99.90
21815;DHT22;11069;48.988;8.450;2024-03-23T12:10:48;9.30;99.90
21815;DHT22;11069;48.988;8.450;2024-03-23T12:13:20;9.70;99.90
21815;DHT22;11069;48.988;8.450;2024-03-23T12:15:50;10.10;99.90
21815;DHT22;11069;48.988;8.450;2024-03-23T12:18:17;10.60;99.90
21815;DHT22;11069;48.988;8.450;2024-03-23T12:20:45;11.60;99.90
21815;DHT22;11069;48.988;8.450;2024-03-23T12:23:12;12.80;99.90
21815;DHT22;11069;48.988;8.450;2024-03-23T12:25:39;13.40;99.90
21815;DHT22;11069;48.988;8.450;2024-03-23T12:28:05;13.80;99.90
21815;DHT22;11069;48.988;8.450;2024-03-23T12:30:35;14.30;99.90
21815;DHT22;11069;48.988;8.450;2024-03-23T12:33:01;14.00;99.90
21815;DHT22;11069;48.988;8.450;2024-03-23T12:35:26;13.10;99.90
21815;DHT22;11069;48.988;8.450;2024-03-23T12:37:52;13.00;99.90
21815;DHT22;11069;48.988;8.450;2024-03-23T12:40:17;12.50;99.90
21815;DHT22;11069;48.988;8.450;2024-03-23T12:42:43;12.10;99.90
21815;DHT22;11069;48.988;8.450;2024-03-23T12:45:09;12.00;99.90
21815;DHT22;11069;48.988;8.450;2024-03-23T12:47:34;13.10;99.90
21815;DHT22;11069;48.988;8.450;2024-03-23T12:50:00;13.30;99.90
21815;DHT22;11069;48.988;8.450;2024-03-23T12:52:25;13.80;99.90
21815;DHT22;11069;48.988;8.450;2024-03-23T12:54:56;13.70;99.90
21815;DHT22;11069;48.988;8.450;2024-03-23T12:57:28;12.90;99.90
21815;DHT22;11069;48.988;8.450;2024-03-23T12:59:54;11.80;99.90
21815;DHT22;11069;48.988;8.450;2024-03-23T13:02:22;10.90;99.90
21815;DHT22;11069;48.988;8.450;2024-03-23T13:04:52;9.90;99.90
21815;DHT22;11069;48.988;8.450;2024-03-23T13:07:19;9.00;99.90
21815;DHT22;11069;48.988;8.450;2024-03-23T13:09:45;8.40;99.90
21815;DHT22;11069;48.988;8.450;2024-03-23T13:12:11;8.20;99.90
21815;DHT22;11069;48.988;8.450;2024-03-23T13:14:39;8.20;99.90
21815;DHT22;11069;48.988;8.450;2024-03-23T13:17:08;8.10;99.90
21815;DHT22;11069;48.988;8.450;2024-03-23T13:19:34;8.20;99.90
21815;DHT22;11069;48.988;8.450;2024-03-23T13:22:00;8.30;99.90
21815;DHT22;11069;48.988;8.450;2024-03-23T13:24:27;8.40;99.90
21815;DHT22;11069;48.988;8.450;2024-03-23T13:26:54;8.60;99.90
21815;DHT22;11069;48.988;8.450;2024-03-23T13:29:20;8.70;99.90
21815;DHT22;11069;48.988;8.450;2024-03-23T13:31:46;9.70;99.90
21815;DHT22;11069;48.988;8.450;2024-03-23T13:34:12;10.90;99.90
21815;DHT22;11069;48.988;8.450;2024-03-23T13:36:40;12.10;99.90
21815;DHT22;11069;48.988;8.450;2024-03-23T13:39:07;12.20;99.90
21815;DHT22;11069;48.988;8.450;2024-03-23T13:41:45;11.30;99.90
21815;DHT22;11069;48.988;8.450;2024-03-23T13:44:12;10.70;99.90
21815;DHT22;11069;48.988;8.450;2024-03-23T13:46:39;10.50;99.90
21815;DHT22;11069;48.988;8.450;2024-03-23T13:49:05;10.20;99.90
21815;DHT22;11069;48.988;8.450;2024-03-23T13:51:31;10.10;99.90
21815;DHT22;11069;48.988;8.450;2024-03-23T13:53:57;11.20;99.90
21815;DHT22;11069;48.988;8.450;2024-03-23T13:56:26;12.40;99.90
21815;DHT22;11069;48.988;8.450;2024-03-23T13:58:53;12.80;99.90
21815;DHT22;11069;48.988;8.450;2024-03-23T14:01:19;13.30;98.50
21815;DHT22;11069;48.988;8.450;2024-03-23T14:03:45;13.80;97.50
21815;DHT22;11069;48.988;8.450;2024-03-23T14:06:11;14.70;95.10
21815;DHT22;11069;48.988;8.450;2024-03-23T14:08:37;14.00;96.10
21815;DHT22;11069;48.988;8.450;2024-03-23T14:11:07;12.70;97.50
21815;DHT22;11069;48.988;8.450;2024-03-23T14:13:34;11.90;99.90
21815;DHT22;11069;48.988;8.450;2024-03-23T14:16:00;12.40;99.90
21815;DHT22;11069;48.988;8.450;2024-03-23T14:18:25;11.80;99.50
21815;DHT22;11069;48.988;8.450;2024-03-23T14:20:52;11.60;99.90
21815;DHT22;11069;48.988;8.450;2024-03-23T14:23:19;11.00;99.90
21815;DHT22;11069;48.988;8.450;2024-03-23T14:25:44;10.30;99.90
21815;DHT22;11069;48.988;8.450;2024-03-23T14:28:10;9.60;99.90
21815;DHT22;11069;48.988;8.450;2024-03-23T14:30:42;9.50;99.90
21815;DHT22;11069;48.988;8.450;2024-03-23T14:33:09;9.80;99.90
21815;DHT22;11069;48.988;8.450;2024-03-23T14:35:35;9.60;99.90
21815;DHT22;11069;48.988;8.450;2024-03-23T14:38:01;9.10;99.90
21815;DHT22;11069;48.988;8.450;2024-03-23T14:40:27;9.50;99.90
21815;DHT22;11069;48.988;8.450;2024-03-23T14:42:54;10.80;99.90
21815;DHT22;11069;48.988;8.450;2024-03-23T14:45:21;12.40;99.90
21815;DHT22;11069;48.988;8.450;2024-03-23T14:47:47;12.90;99.00
21815;DHT22;11069;48.988;8.450;2024-03-23T14:50:13;13.10;98.50
21815;DHT22;11069;48.988;8.450;2024-03-23T14:52:47;13.50;97.60
21815;DHT22;11069;48.988;8.450;2024-03-23T14:55:13;13.80;98.60
21815;DHT22;11069;48.988;8.450;2024-03-23T14:57:38;13.70;96.90
21815;DHT22;11069;48.988;8.450;2024-03-23T15:00:09;14.00;96.80
21815;DHT22;11069;48.988;8.450;2024-03-23T15:02:38;13.70;95.80
21815;DHT22;11069;48.988;8.450;2024-03-23T15:05:07;12.60;96.30
21815;DHT22;11069;48.988;8.450;2024-03-23T15:07:36;11.80;97.70
21815;DHT22;11069;48.988;8.450;2024-03-23T15:10:04;12.10;98.00
21815;DHT22;11069;48.988;8.450;2024-03-23T15:12:30;12.60;97.30
21815;DHT22;11069;48.988;8.450;2024-03-23T15:14:58;13.00;97.70
21815;DHT22;11069;48.988;8.450;2024-03-23T15:17:24;13.20;96.60
21815;DHT22;11069;48.988;8.450;2024-03-23T15:19:49;12.80;97.30
21815;DHT22;11069;48.988;8.450;2024-03-23T15:22:15;12.80;97.80
21815;DHT22;11069;48.988;8.450;2024-03-23T15:24:40;12.20;98.20
21815;DHT22;11069;48.988;8.450;2024-03-23T15:27:06;11.30;99.90
21815;DHT22;11069;48.988;8.450;2024-03-23T15:29:34;10.70;99.90
21815;DHT22;11069;48.988;8.450;2024-03-23T15:31:59;10.50;99.90
21815;DHT22;11069;48.988;8.450;2024-03-23T15:34:25;10.40;99.90
21815;DHT22;11069;48.988;8.450;2024-03-23T15:36:51;10.20;99.90
21815;DHT22;11069;48.988;8.450;2024-03-23T15:39:17;9.90;99.90
21815;DHT22;11069;48.988;8.450;2024-03-23T15:41:46;9.80;99.90
21815;DHT22;11069;48.988;8.450;2024-03-23T15:44:11;9.80;99.90
21815;DHT22;11069;48.988;8.450;2024-03-23T15:46:37;9.70;99.90
21815;DHT22;11069;48.988;8.450;2024-03-23T15:49:03;9.50;99.90
21815;DHT22;11069;48.988;8.450;2024-03-23T15:51:30;9.30;99.90
21815;DHT22;11069;48.988;8.450;2024-03-23T15:54:00;9.20;99.90
21815;DHT22;11069;48.988;8.450;2024-03-23T15:56:28;9.00;99.90
21815;DHT22;11069;48.988;8.450;2024-03-23T15:58:54;8.90;99.90
21815;DHT22;11069;48.988;8.450;2024-03-23T16:01:20;8.80;99.90
21815;DHT22;11069;48.988;8.450;2024-03-23T16:03:46;8.80;99.90
21815;DHT22;11069;48.988;8.450;2024-03-23T16:06:11;8.80;99.90
21815;DHT22;11069;48.988;8.450;2024-03-23T16:08:37;8.90;99.90
21815;DHT22;11069;48.988;8.450;2024-03-23T16:11:05;8.90;99.90
21815;DHT22;11069;48.988;8.450;2024-03-23T16:13:32;8.90;99.90
21815;DHT22;11069;48.988;8.450;2024-03-23T16:15:59;8.90;99.90
21815;DHT22;11069;48.988;8.450;2024-03-23T16:18:25;8.90;99.90
21815;DHT22;11069;48.988;8.450;2024-03-23T16:20:58;8.80;99.90
21815;DHT22;11069;48.988;8.450;2024-03-23T16:23:25;8.60;99.90
21815;DHT22;11069;48.988;8.450;2024-03-23T16:25:52;8.50;99.90
21815;DHT22;11069;48.988;8.450;2024-03-23T16:28:51;8.40;99.90
21815;DHT22;11069;48.988;8.450;2024-03-23T16:31:16;8.30;99.90